Time;durP1;ratioP1;P1;durP2;ratioP2;P2;SDS_P1;SDS_P2;PMS_P1;PMS_P2;Temp;Humidity;BMP_temperature;BMP_pressure;BME280_temperature;BME280_humidity;BME280_pressure;Samples;Min_cycle;Max_cycle;Signal;HPM_P1;HPM_P2
2024/03/13 00:00:10;;;;;;;;;;;8.80;15.50;;;;;;5057251;28;19921;-76
2024/03/13 00:02:45;;;;;;;;;;;8.80;17.00;;;;;;5024187;28;19913;-76
2024/03/13 00:05:12;;;;;;;;;;;8.90;13.70;;;;;;5049316;28;19940;-75
2024/03/13 00:07:39;;;;;;;;;;;8.90;16.10;;;;;;5056850;28;19995;-75
2024/03/13 00:10:08;;;;;;;;;;;9.00;15.00;;;;;;5056195;28;19920;-75
2024/03/13 00:12:34;;;;;;;;;;;9.00;12.10;;;;;;5046799;28;19913;-76
2024/03/13 00:15:01;;;;;;;;;;;9.00;15.30;;;;;;5049706;28;19995;-75
2024/03/13 00:17:30;;;;;;;;;;;9.00;13.00;;;;;;5043272;28;19912;-75
2024/03/13 00:19:57;;;;;;;;;;;9.10;15.30;;;;;;5055910;28;20001;-76
2024/03/13 00:22:23;;;;;;;;;;;9.10;9.90;;;;;;5025176;28;19917;-76
2024/03/13 00:24:49;;;;;;;;;;;9.10;12.50;;;;;;5045194;28;19913;-76
2024/03/13 00:27:20;;;;;;;;;;;9.10;10.80;;;;;;5047509;28;19913;-75
2024/03/13 00:30:08;;;;;;;;;;;9.10;8.80;;;;;;5056550;28;19909;-76
2024/03/13 00:32:34;;;;;;;;;;;9.10;11.70;;;;;;5048709;28;19968;-76
2024/03/13 00:35:01;;;;;;;;;;;9.10;11.30;;;;;;5040613;28;20376;-76
2024/03/13 00:37:43;;;;;;;;;;;9.10;11.30;;;;;;5056585;28;19916;-76
2024/03/13 00:40:16;;;;;;;;;;;9.10;10.20;;;;;;5056408;28;20348;-76
2024/03/13 00:42:42;;;;;;;;;;;9.10;9.70;;;;;;5056660;28;20331;-76
2024/03/13 00:45:08;;;;;;;;;;;9.10;9.50;;;;;;5038272;28;19962;-76
2024/03/13 00:47:43;;;;;;;;;;;9.10;10.10;;;;;;5056542;28;19917;-76
2024/03/13 00:50:18;;;;;;;;;;;9.10;11.20;;;;;;5055988;28;19958;-76
2024/03/13 00:52:44;;;;;;;;;;;9.10;6.00;;;;;;5055765;28;19991;-75
2024/03/13 00:55:27;;;;;;;;;;;9.10;8.40;;;;;;5055974;28;19937;-76
2024/03/13 00:58:08;;;;;;;;;;;9.00;5.80;;;;;;5035274;28;19913;-76
2024/03/13 01:00:38;;;;;;;;;;;9.00;8.30;;;;;;5036139;28;20013;-76
2024/03/13 01:03:04;;;;;;;;;;;9.00;10.20;;;;;;5055971;28;20349;-76
2024/03/13 01:05:33;;;;;;;;;;;8.90;12.10;;;;;;5052293;28;19909;-76
2024/03/13 01:08:06;;;;;;;;;;;8.90;12.00;;;;;;5054470;28;20015;-76
2024/03/13 01:10:32;;;;;;;;;;;8.90;13.50;;;;;;5055598;28;19956;-76
2024/03/13 01:12:59;;;;;;;;;;;11.40;16.00;;;;;;5036897;28;19936;-75
2024/03/13 01:15:24;;;;;;;;;;;8.90;12.10;;;;;;5018297;28;19963;-75
2024/03/13 01:17:50;;;;;;;;;;;8.90;14.60;;;;;;5036203;28;20288;-76
2024/03/13 01:20:19;;;;;;;;;;;8.90;12.80;;;;;;5039088;28;19921;-76
2024/03/13 01:22:56;;;;;;;;;;;8.90;15.00;;;;;;5038834;28;20258;-75
2024/03/13 01:25:22;;;;;;;;;;;8.90;14.40;;;;;;5036456;28;20256;-76
2024/03/13 01:27:49;;;;;;;;;;;8.80;14.90;;;;;;5055789;28;19955;-79
2024/03/13 01:30:21;;;;;;;;;;;8.80;14.40;;;;;;5055188;28;19916;-79
2024/03/13 01:33:06;;;;;;;;;;;8.80;13.50;;;;;;5054275;28;19909;-79
2024/03/13 01:35:48;;;;;;;;;;;8.80;16.30;;;;;;5054534;28;19956;-79
2024/03/13 01:38:42;;;;;;;;;;;8.80;15.50;;;;;;5054370;28;19920;-79
2024/03/13 01:56:15;;;;;;;;;;;8.90;11.80;;;;;;5054830;28;19916;-79
2024/03/13 01:58:43;;;;;;;;;;;8.90;13.50;;;;;;5043098;28;19913;-76
2024/03/13 02:04:01;;;;;;;;;;;8.90;9.80;;;;;;5054857;28;20418;-76
2024/03/13 02:06:36;;;;;;;;;;;8.90;11.70;;;;;;5054581;28;20237;-76
2024/03/13 02:09:03;;;;;;;;;;;8.90;12.00;;;;;;5054806;28;19913;-76
2024/03/13 02:11:37;;;;;;;;;;;8.80;10.80;;;;;;5036345;28;20001;-77
2024/03/13 02:14:07;;;;;;;;;;;8.70;10.90;;;;;;5025477;28;19923;-76
2024/03/13 02:16:32;;;;;;;;;;;8.80;15.90;;;;;;5054928;28;20015;-75
2024/03/13 02:18:59;;;;;;;;;;;8.80;12.10;;;;;;5054546;28;20013;-76
2024/03/13 02:21:26;;;;;;;;;;;8.80;10.60;;;;;;5053714;28;19909;-76
2024/03/13 02:23:56;;;;;;;;;;;8.80;10.40;;;;;;5039166;28;20004;-75
2024/03/13 02:26:22;;;;;;;;;;;8.80;13.40;;;;;;5046675;28;20370;-76
2024/03/13 02:28:49;;;;;;;;;;;8.80;14.20;;;;;;5054559;28;19913;-76
2024/03/13 02:31:14;;;;;;;;;;;8.70;10.70;;;;;;5054245;28;20004;-76
2024/03/13 02:33:40;;;;;;;;;;;8.70;14.60;;;;;;5052821;28;19996;-75
2024/03/13 02:36:06;;;;;;;;;;;8.70;13.20;;;;;;5054443;28;19966;-76
2024/03/13 02:38:44;;;;;;;;;;;8.70;16.00;;;;;;5054025;28;20545;-76
2024/03/13 02:41:19;;;;;;;;;;;8.60;16.20;;;;;;5052671;28;19913;-75
2024/03/13 02:43:49;;;;;;;;;;;8.70;16.80;;;;;;5053987;28;19915;-76
2024/03/13 02:46:14;;;;;;;;;;;8.70;19.40;;;;;;5053914;28;19916;-76
2024/03/13 02:48:40;;;;;;;;;;;8.70;15.60;;;;;;5061189;28;19930;-76
2024/03/13 02:51:08;;;;;;;;;;;8.70;18.60;;;;;;5018527;28;19909;-75
2024/03/13 02:53:34;;;;;;;;;;;8.80;14.30;;;;;;5053364;28;20364;-76
2024/03/13 02:56:01;;;;;;;;;;;8.80;16.90;;;;;;5034795;28;19914;-76
2024/03/13 02:58:31;;;;;;;;;;;8.80;17.00;;;;;;5044744;28;19909;-75
2024/03/13 03:00:58;;;;;;;;;;;8.70;16.60;;;;;;5054203;28;19913;-76
2024/03/13 03:03:24;;;;;;;;;;;8.70;15.60;;;;;;5035698;28;19913;-76
2024/03/13 03:05:49;;;;;;;;;;;8.80;17.70;;;;;;5054092;28;19909;-76
2024/03/13 03:08:19;;;;;;;;;;;8.80;16.80;;;;;;5053501;28;19913;-76
2024/03/13 03:10:55;;;;;;;;;;;8.90;15.10;;;;;;5053871;28;19913;-75
2024/03/13 03:13:31;;;;;;;;;;;8.90;15.60;;;;;;5045286;28;19920;-75
2024/03/13 03:15:56;;;;;;;;;;;8.90;15.30;;;;;;5035304;28;19959;-76
2024/03/13 03:18:25;;;;;;;;;;;8.80;13.20;;;;;;5046925;28;19949;-75
2024/03/13 03:21:08;;;;;;;;;;;8.90;16.30;;;;;;5037611;28;19916;-75
2024/03/13 03:23:33;;;;;;;;;;;8.90;11.00;;;;;;5043971;28;19913;-76
2024/03/13 03:25:59;;;;;;;;;;;8.90;13.30;;;;;;5057432;28;19909;-75
2024/03/13 03:28:37;;;;;;;;;;;8.90;10.90;;;;;;5057875;28;19912;-79
2024/03/13 03:31:19;;;;;;;;;;;8.90;13.40;;;;;;5057131;28;19917;-79
2024/03/13 03:34:02;;;;;;;;;;;8.90;11.40;;;;;;5039301;28;20003;-79
2024/03/13 03:36:40;;;;;;;;;;;8.90;11.10;;;;;;5038548;28;19913;-79
2024/03/13 03:39:10;;;;;;;;;;;8.90;12.00;;;;;;5044900;28;19964;-80
2024/03/13 03:44:37;;;;;;;;;;;8.90;11.40;;;;;;5051969;28;19921;-79
2024/03/13 03:47:36;;;;;;;;;;;8.90;11.50;;;;;;5055996;28;19927;-79
2024/03/13 03:50:07;;;;;;;;;;;8.90;10.90;;;;;;5052498;28;20004;-79
2024/03/13 03:52:38;;;;;;;;;;;8.90;8.60;;;;;;5057162;28;19913;-79
2024/03/13 03:55:07;;;;;;;;;;;8.90;10.30;;;;;;5057002;28;19909;-79
2024/03/13 03:57:32;;;;;;;;;;;8.90;7.50;;;;;;5057109;28;19923;-79
2024/03/13 04:00:09;;;;;;;;;;;8.90;11.00;;;;;;5055614;28;20007;-75
2024/03/13 04:02:35;;;;;;;;;;;8.90;12.40;;;;;;5056209;28;19913;-76
2024/03/13 04:05:02;;;;;;;;;;;8.90;13.90;;;;;;5056896;28;19915;-75
2024/03/13 04:07:28;;;;;;;;;;;8.90;14.50;;;;;;5055182;28;19919;-76
2024/03/13 04:09:54;;;;;;;;;;;8.90;13.60;;;;;;5055305;28;19909;-75
2024/03/13 04:12:20;;;;;;;;;;;8.90;14.00;;;;;;5056172;28;20307;-75
2024/03/13 04:14:49;;;;;;;;;;;8.80;11.50;;;;;;5057363;28;19909;-76
2024/03/13 04:17:14;;;;;;;;;;;8.80;14.40;;;;;;5057059;28;20003;-76
2024/03/13 04:19:42;;;;;;;;;;;8.80;13.40;;;;;;5055784;28;20027;-75
2024/03/13 04:22:13;;;;;;;;;;;8.80;13.50;;;;;;5049889;28;19920;-76
2024/03/13 04:24:49;;;;;;;;;;;8.80;17.20;;;;;;5056151;28;19920;-76
2024/03/13 04:27:19;;;;;;;;;;;8.80;14.70;;;;;;5056490;28;19916;-76
2024/03/13 04:29:49;;;;;;;;;;;8.80;15.30;;;;;;5056599;28;20394;-80
2024/03/13 04:32:15;;;;;;;;;;;8.80;16.70;;;;;;5056292;28;19998;-79
2024/03/13 04:34:42;;;;;;;;;;;8.80;20.20;;;;;;5053107;28;19967;-79
2024/03/13 04:37:08;;;;;;;;;;;8.80;17.00;;;;;;5049450;28;19944;-79
2024/03/13 04:39:37;;;;;;;;;;;8.80;19.80;;;;;;5054205;28;20009;-78
2024/03/13 04:42:04;;;;;;;;;;;8.90;19.30;;;;;;5052084;28;19966;-79
2024/03/13 04:44:30;;;;;;;;;;;8.80;15.70;;;;;;5055117;28;19919;-80
2024/03/13 04:47:07;;;;;;;;;;;8.90;18.00;;;;;;5036903;28;20280;-80
2024/03/13 04:50:02;;;;;;;;;;;8.90;17.80;;;;;;5055888;28;19917;-80
2024/03/13 04:53:01;;;;;;;;;;;8.90;17.10;;;;;;5025069;28;19909;-79
2024/03/13 04:55:31;;;;;;;;;;;8.80;16.90;;;;;;5037942;28;19940;-79
2024/03/13 04:58:07;;;;;;;;;;;8.90;16.70;;;;;;5034411;28;19959;-78
2024/03/13 05:00:37;;;;;;;;;;;8.90;14.40;;;;;;5055895;28;19959;-75
2024/03/13 05:03:03;;;;;;;;;;;8.90;16.80;;;;;;5055792;28;19923;-76
2024/03/13 05:05:31;;;;;;;;;;;8.90;17.30;;;;;;5055999;28;19920;-76
2024/03/13 05:08:01;;;;;;;;;;;8.90;15.20;;;;;;5055839;28;19909;-76
2024/03/13 05:10:29;;;;;;;;;;;8.80;18.70;;;;;;5049838;28;19913;-77
2024/03/13 05:12:55;;;;;;;;;;;8.80;20.60;;;;;;5055896;28;19908;-75
2024/03/13 05:15:21;;;;;;;;;;;8.90;16.70;;;;;;5038519;28;19909;-75
2024/03/13 05:17:49;;;;;;;;;;;8.90;17.50;;;;;;5055949;28;19920;-76
2024/03/13 05:20:31;;;;;;;;;;;8.90;16.40;;;;;;5044985;28;19964;-76
2024/03/13 05:23:06;;;;;;;;;;;8.90;14.10;;;;;;5054623;28;19912;-76
2024/03/13 05:25:34;;;;;;;;;;;8.90;14.10;;;;;;5055477;28;19929;-76
2024/03/13 05:28:00;;;;;;;;;;;8.90;17.00;;;;;;5021407;28;20261;-75
2024/03/13 05:30:26;;;;;;;;;;;8.90;14.50;;;;;;5037640;28;20360;-75
2024/03/13 05:32:52;;;;;;;;;;;8.90;18.30;;;;;;5055153;28;19956;-76
2024/03/13 05:35:31;;;;;;;;;;;8.90;17.60;;;;;;5055269;28;19908;-75
2024/03/13 05:38:07;;;;;;;;;;;8.90;21.00;;;;;;5050509;28;19970;-76
2024/03/13 05:40:37;;;;;;;;;;;9.00;17.20;;;;;;5054953;28;19966;-76
2024/03/13 05:43:07;;;;;;;;;;;9.00;19.70;;;;;;5053868;28;19913;-75
2024/03/13 05:45:32;;;;;;;;;;;9.00;19.10;;;;;;5055299;28;19921;-84
2024/03/13 05:48:01;;;;;;;;;;;9.10;18.60;;;;;;5054846;28;19977;-76
2024/03/13 05:50:31;;;;;;;;;;;9.00;19.10;;;;;;5050368;28;20246;-76
2024/03/13 05:52:57;;;;;;;;;;;9.00;18.90;;;;;;5047128;28;19913;-76
2024/03/13 05:55:24;;;;;;;;;;;9.00;18.80;;;;;;5054906;28;20425;-76
2024/03/13 05:57:50;;;;;;;;;;;9.10;15.90;;;;;;5052229;28;19913;-77
2024/03/13 06:00:19;;;;;;;;;;;9.10;18.60;;;;;;5053923;28;20259;-76
2024/03/13 06:02:49;;;;;;;;;;;9.10;17.20;;;;;;5046773;28;20004;-75
2024/03/13 06:05:16;;;;;;;;;;;9.10;17.10;;;;;;5052696;28;19912;-76
2024/03/13 06:07:55;;;;;;;;;;;9.10;16.30;;;;;;5054993;28;20316;-76
2024/03/13 06:10:31;;;;;;;;;;;9.10;12.90;;;;;;5048327;28;19910;-76
2024/03/13 06:12:56;;;;;;;;;;;9.00;15.00;;;;;;5050560;28;19913;-76
2024/03/13 06:15:37;;;;;;;;;;;9.10;17.20;;;;;;5054751;28;19920;-79
2024/03/13 06:21:07;;;;;;;;;;;9.10;19.10;;;;;;5051408;28;20287;-79
2024/03/13 06:23:37;;;;;;;;;;;9.20;19.20;;;;;;5054633;28;20070;-79
2024/03/13 06:26:07;;;;;;;;;;;9.20;18.70;;;;;;5052101;28;19970;-79
2024/03/13 06:31:33;;;;;;;;;;;9.40;13.80;;;;;;5054237;28;19966;-79
2024/03/13 06:34:13;;;;;;;;;;;9.50;12.00;;;;;;5043989;28;19995;-79
2024/03/13 06:36:49;;;;;;;;;;;9.50;12.90;;;;;;5022879;28;20028;-79
2024/03/13 06:39:16;;;;;;;;;;;9.60;6.40;;;;;;5021060;28;19970;-79
2024/03/13 06:42:07;;;;;;;;;;;9.70;8.20;;;;;;5035008;28;20330;-80
2024/03/13 06:44:32;;;;;;;;;;;9.70;4.00;;;;;;5034416;28;19920;-76
2024/03/13 06:47:01;;;;;;;;;;;11.00;6.50;;;;;;5053593;28;19916;-75
2024/03/13 06:49:26;;;;;;;;;;;9.80;7.50;;;;;;5051255;28;19948;-76
2024/03/13 06:51:52;;;;;;;;;;;9.80;7.60;;;;;;5044087;28;19971;-76
2024/03/13 06:54:18;;;;;;;;;;;9.90;6.10;;;;;;5053927;28;19912;-76
2024/03/13 06:56:43;;;;;;;;;;;9.80;3.80;;;;;;5053375;28;19939;-76
2024/03/13 06:59:10;;;;;;;;;;;9.80;6.60;;;;;;5054570;28;20000;-78
2024/03/13 07:04:43;;;;;;;;;;;9.90;7.20;;;;;;5057713;28;19962;-80
2024/03/13 07:07:44;;;;;;;;;;;10.00;6.40;;;;;;5058144;28;20011;-80
2024/03/13 07:13:32;;;;;;;;;;;10.10;3.50;;;;;;5037944;28;20375;-80
2024/03/13 07:16:19;;;;;;;;;;;10.10;3.20;;;;;;5052176;28;19979;-79
2024/03/13 07:19:02;;;;;;;;;;;10.40;1.00;;;;;;5057772;28;19917;-81
2024/03/13 07:21:49;;;;;;;;;;;10.30;1.00;;;;;;5056159;28;19925;-79
2024/03/13 07:27:32;;;;;;;;;;;10.40;1.00;;;;;;5051431;28;19919;-79
2024/03/13 07:30:07;;;;;;;;;;;10.40;1.00;;;;;;5049080;28;19909;-76
2024/03/13 07:32:33;;;;;;;;;;;10.50;1.00;;;;;;5054350;28;19999;-77
2024/03/13 07:34:58;;;;;;;;;;;10.50;1.00;;;;;;5056876;28;19998;-76
2024/03/13 07:37:25;;;;;;;;;;;10.50;1.00;;;;;;5053273;28;19913;-76
2024/03/13 07:39:57;;;;;;;;;;;10.50;1.00;;;;;;5056972;28;20041;-76
2024/03/13 07:42:25;;;;;;;;;;;10.70;1.00;;;;;;5047523;28;19913;-75
2024/03/13 07:44:55;;;;;;;;;;;10.70;1.00;;;;;;5054621;28;19908;-79
2024/03/13 07:50:23;;;;;;;;;;;10.80;1.00;;;;;;5046348;28;20364;-79
2024/03/13 07:53:02;;;;;;;;;;;10.90;1.00;;;;;;5057033;28;19951;-79
2024/03/13 07:55:33;;;;;;;;;;;10.80;1.00;;;;;;5056896;28;19952;-79
2024/03/13 07:58:13;;;;;;;;;;;10.80;1.00;;;;;;5056867;28;20422;-79
2024/03/13 08:00:39;;;;;;;;;;;10.90;1.00;;;;;;5054465;28;20234;-76
2024/03/13 08:03:05;;;;;;;;;;;10.90;1.00;;;;;;5042211;28;19924;-76
2024/03/13 08:05:31;;;;;;;;;;;10.90;1.00;;;;;;5039314;28;19912;-76
2024/03/13 08:08:01;;;;;;;;;;;10.90;1.00;;;;;;5056989;28;20459;-76
2024/03/13 08:10:31;;;;;;;;;;;11.00;1.00;;;;;;5037558;28;19931;-76
2024/03/13 08:12:56;;;;;;;;;;;10.90;1.00;;;;;;5056596;28;19919;-76
2024/03/13 08:15:22;;;;;;;;;;;10.70;1.00;;;;;;5057079;28;19917;-75
2024/03/13 08:17:49;;;;;;;;;;;10.70;1.00;;;;;;5042288;28;19920;-76
2024/03/13 08:20:14;;;;;;;;;;;10.80;1.00;;;;;;5050626;28;19917;-76
2024/03/13 08:22:43;;;;;;;;;;;11.20;1.00;;;;;;5057000;28;19916;-76
2024/03/13 08:25:25;;;;;;;;;;;11.20;1.00;;;;;;5056191;28;19908;-76
2024/03/13 08:27:51;;;;;;;;;;;11.40;1.00;;;;;;5056620;28;19913;-76
2024/03/13 08:30:20;;;;;;;;;;;11.40;1.00;;;;;;5056122;28;19913;-77
2024/03/13 08:32:51;;;;;;;;;;;11.50;1.00;;;;;;5055909;28;19909;-76
2024/03/13 08:35:17;;;;;;;;;;;11.30;1.00;;;;;;5055187;28;20371;-76
2024/03/13 08:37:43;;;;;;;;;;;11.30;1.00;;;;;;5044326;28;19924;-76
2024/03/13 08:40:11;;;;;;;;;;;11.40;1.00;;;;;;5054303;28;19913;-76
2024/03/13 08:42:49;;;;;;;;;;;11.40;1.00;;;;;;5037331;28;20291;-76
2024/03/13 08:45:14;;;;;;;;;;;11.60;1.00;;;;;;5045284;28;19909;-78
2024/03/13 08:47:43;;;;;;;;;;;11.60;1.00;;;;;;5056074;28;19917;-77
2024/03/13 08:50:08;;;;;;;;;;;11.70;1.00;;;;;;5055117;28;19908;-76
2024/03/13 08:52:49;;;;;;;;;;;11.80;1.00;;;;;;5056298;28;19916;-76
2024/03/13 08:55:17;;;;;;;;;;;11.90;1.00;;;;;;5055893;28;19909;-76
2024/03/13 08:57:43;;;;;;;;;;;11.40;1.00;;;;;;5054898;28;19952;-76
2024/03/13 09:00:10;;;;;;;;;;;11.30;1.00;;;;;;5039942;28;20411;-76
2024/03/13 09:02:38;;;;;;;;;;;11.50;1.00;;;;;;5052546;28;19967;-79
2024/03/13 09:05:03;;;;;;;;;;;11.60;1.00;;;;;;5055187;28;20356;-79
2024/03/13 09:07:31;;;;;;;;;;;11.70;1.00;;;;;;5054700;28;19958;-79
2024/03/13 09:10:01;;;;;;;;;;;11.90;1.00;;;;;;5046750;28;19995;-79
2024/03/13 09:15:30;;;;;;;;;;;11.80;1.00;;;;;;5055539;28;19915;-77
2024/03/13 09:21:26;;;;;;;;;;;12.10;1.00;;;;;;5055017;28;19924;-79
2024/03/13 09:24:13;;;;;;;;;;;12.00;1.00;;;;;;5041740;28;19952;-79
2024/03/13 09:29:42;;;;;;;;;;;11.80;1.00;;;;;;5055402;28;20283;-79
2024/03/13 09:32:31;;;;;;;;;;;11.90;1.00;;;;;;5049031;28;19913;-76
2024/03/13 09:34:56;;;;;;;;;;;11.90;1.00;;;;;;5053350;28;20263;-76
2024/03/13 09:37:22;;;;;;;;;;;11.80;1.00;;;;;;5046797;28;20128;-76
2024/03/13 09:39:49;;;;;;;;;;;11.90;1.00;;;;;;5050201;28;19940;-75
2024/03/13 09:42:22;;;;;;;;;;;12.10;1.00;;;;;;5054578;28;20012;-76
2024/03/13 09:44:49;;;;;;;;;;;12.30;1.00;;;;;;5054937;28;19936;-76
2024/03/13 09:47:15;;;;;;;;;;;12.30;1.00;;;;;;5055418;28;19917;-76
2024/03/13 09:50:05;;;;;;;;;;;12.10;1.00;;;;;;5054981;28;19957;-76
2024/03/13 09:52:49;;;;;;;;;;;12.10;1.00;;;;;;5053069;28;19917;-77
2024/03/13 09:55:25;;;;;;;;;;;12.40;1.00;;;;;;5055199;28;19916;-76
2024/03/13 09:58:02;;;;;;;;;;;12.30;1.00;;;;;;5054852;28;19963;-76
2024/03/13 10:00:28;;;;;;;;;;;12.20;1.00;;;;;;5054728;28;19965;-77
2024/03/13 10:03:17;;;;;;;;;;;12.20;1.00;;;;;;5049017;28;20008;-79
2024/03/13 10:05:51;;;;;;;;;;;12.30;1.00;;;;;;5053206;28;19999;-79
2024/03/13 10:08:19;;;;;;;;;;;12.20;1.00;;;;;;5054597;28;19916;-79
2024/03/13 10:10:49;;;;;;;;;;;12.20;1.00;;;;;;5052615;28;20003;-79
2024/03/13 10:13:31;;;;;;;;;;;12.50;1.00;;;;;;5047377;28;19913;-79
2024/03/13 10:16:07;;;;;;;;;;;12.60;1.00;;;;;;5051636;28;19920;-79
2024/03/13 10:18:34;;;;;;;;;;;12.70;1.00;;;;;;5054201;28;20416;-79
2024/03/13 10:21:25;;;;;;;;;;;12.70;1.00;;;;;;5054087;28;19913;-79
2024/03/13 10:24:01;;;;;;;;;;;12.90;1.00;;;;;;5054419;28;19912;-79
2024/03/13 10:26:31;;;;;;;;;;;12.90;1.00;;;;;;5049002;28;20103;-80
2024/03/13 10:29:19;;;;;;;;;;;13.00;1.00;;;;;;5032925;28;19914;-79
2024/03/13 10:31:50;;;;;;;;;;;12.80;1.00;;;;;;5031641;28;19909;-78
2024/03/13 10:34:16;;;;;;;;;;;13.00;1.00;;;;;;5035191;28;19909;-78
2024/03/13 10:37:01;;;;;;;;;;;13.40;1.00;;;;;;5053990;28;19970;-78
2024/03/13 10:45:49;;;;;;;;;;;13.40;1.00;;;;;;5041689;28;20437;-79
2024/03/13 10:48:25;;;;;;;;;;;12.90;1.00;;;;;;5041383;28;20330;-76
2024/03/13 10:51:02;;;;;;;;;;;12.90;1.00;;;;;;5048342;28;20027;-77
2024/03/13 10:53:37;;;;;;;;;;;13.20;1.00;;;;;;5052550;28;19935;-77
2024/03/13 10:56:19;;;;;;;;;;;13.30;1.00;;;;;;5054422;28;19990;-76
2024/03/13 10:58:49;;;;;;;;;;;13.40;1.00;;;;;;5049276;28;19970;-76
2024/03/13 11:01:19;;;;;;;;;;;13.60;1.00;;;;;;5053882;28;19917;-77
2024/03/13 11:03:45;;;;;;;;;;;13.60;1.00;;;;;;5027828;28;20320;-76
2024/03/13 11:06:32;;;;;;;;;;;13.30;1.00;;;;;;5055567;28;19952;-76
2024/03/13 11:09:20;;;;;;;;;;;13.40;1.00;;;;;;5056641;28;19936;-76
2024/03/13 11:11:56;;;;;;;;;;;13.40;1.00;;;;;;5043713;28;20288;-77
2024/03/13 11:14:25;;;;;;;;;;;13.30;1.00;;;;;;5053206;28;19946;-75
2024/03/13 11:17:05;;;;;;;;;;;13.20;1.00;;;;;;5053558;28;19913;-79
2024/03/13 11:19:33;;;;;;;;;;;13.00;1.00;;;;;;5050316;28;19913;-79
2024/03/13 11:21:59;;;;;;;;;;;12.90;1.00;;;;;;5052491;28;19957;-80
2024/03/13 11:24:43;;;;;;;;;;;12.80;1.00;;;;;;5048649;28;19936;-79
2024/03/13 11:27:26;;;;;;;;;;;12.60;1.00;;;;;;5051523;28;19909;-78
2024/03/13 11:29:56;;;;;;;;;;;12.70;1.00;;;;;;5053053;28;19909;-79
2024/03/13 11:32:31;;;;;;;;;;;12.60;1.00;;;;;;5052391;28;19963;-81
2024/03/13 11:34:57;;;;;;;;;;;12.50;1.00;;;;;;5052788;28;19920;-83
2024/03/13 11:40:27;;;;;;;;;;;12.30;1.00;;;;;;5044106;28;20374;-85
2024/03/13 11:46:10;;;;;;;;;;;12.30;1.00;;;;;;5053564;28;19920;-79
2024/03/13 11:48:36;;;;;;;;;;;12.30;1.00;;;;;;5055911;28;19917;-78
2024/03/13 11:51:19;;;;;;;;;;;12.40;1.00;;;;;;5038067;28;19924;-78
2024/03/13 11:54:21;;;;;;;;;;;12.40;1.00;;;;;;5055814;28;19928;-79
2024/03/13 11:57:00;;;;;;;;;;;12.30;1.00;;;;;;4975927;28;20330;-78
2024/03/13 11:59:50;;;;;;;;;;;11.90;1.00;;;;;;4977954;28;19910;-78
2024/03/13 12:02:31;;;;;;;;;;;11.90;1.00;;;;;;4976901;28;19917;-77
2024/03/13 12:05:00;;;;;;;;;;;12.30;1.00;;;;;;4981550;28;19914;-76
2024/03/13 12:07:40;;;;;;;;;;;12.50;1.00;;;;;;4986129;28;19957;-76
2024/03/13 12:10:16;;;;;;;;;;;12.50;1.00;;;;;;4979609;28;20275;-77
2024/03/13 12:12:42;;;;;;;;;;;12.40;1.00;;;;;;4975536;28;19918;-76
2024/03/13 12:15:17;;;;;;;;;;;12.60;1.00;;;;;;4962538;28;20464;-76
2024/03/13 12:17:55;;;;;;;;;;;12.50;1.00;;;;;;4979006;28;19914;-78
2024/03/13 12:20:25;;;;;;;;;;;12.50;1.00;;;;;;4974457;28;20371;-78
2024/03/13 12:23:13;;;;;;;;;;;12.80;1.00;;;;;;4979357;28;19914;-79
2024/03/13 12:25:43;;;;;;;;;;;12.60;1.00;;;;;;4987272;28;19910;-78
2024/03/13 12:28:43;;;;;;;;;;;12.70;1.00;;;;;;4979641;28;19926;-79
2024/03/13 12:31:13;;;;;;;;;;;12.80;1.00;;;;;;5026797;28;19916;-79
2024/03/13 12:36:56;;;;;;;;;;;12.70;1.00;;;;;;5053752;28;19915;-78
2024/03/13 12:39:22;;;;;;;;;;;13.00;1.00;;;;;;5055522;28;19995;-76
2024/03/13 12:41:55;;;;;;;;;;;13.10;1.00;;;;;;5063040;28;20008;-76
2024/03/13 12:44:38;;;;;;;;;;;13.30;1.00;;;;;;5055802;28;19908;-76
2024/03/13 12:47:03;;;;;;;;;;;13.20;1.00;;;;;;5051591;28;19921;-77
2024/03/13 12:52:40;;;;;;;;;;;13.40;1.00;;;;;;5055293;28;20382;-79
2024/03/13 12:55:16;;;;;;;;;;;13.50;1.00;;;;;;5055594;28;19913;-78
2024/03/13 12:58:05;;;;;;;;;;;13.90;1.00;;;;;;5050820;28;19988;-78
2024/03/13 13:00:43;;;;;;;;;;;14.00;1.00;;;;;;5034313;28;20347;-78
2024/03/13 13:03:14;;;;;;;;;;;14.10;1.00;;;;;;5051894;28;20261;-78
2024/03/13 13:05:49;;;;;;;;;;;14.10;1.00;;;;;;5055185;28;19916;-78
2024/03/13 13:08:22;;;;;;;;;;;14.20;1.00;;;;;;5055187;28;20352;-79
2024/03/13 13:10:56;;;;;;;;;;;14.20;1.00;;;;;;5052681;28;20292;-78
2024/03/13 13:16:25;;;;;;;;;;;14.00;1.00;;;;;;5049659;28;19979;-78
2024/03/13 13:18:50;;;;;;;;;;;14.30;1.00;;;;;;5055690;28;19913;-76
2024/03/13 13:21:16;;;;;;;;;;;14.40;1.00;;;;;;5055733;28;20061;-77
2024/03/13 13:23:43;;;;;;;;;;;14.40;1.00;;;;;;5039072;28;19913;-76
2024/03/13 13:26:19;;;;;;;;;;;13.90;1.00;;;;;;5046221;28;19915;-76
2024/03/13 13:28:44;;;;;;;;;;;13.90;1.00;;;;;;5048709;28;19913;-76
2024/03/13 13:31:10;;;;;;;;;;;13.90;1.00;;;;;;5042784;28;19999;-77
2024/03/13 13:33:45;;;;;;;;;;;14.00;1.00;;;;;;5053233;28;19908;-76
2024/03/13 13:36:10;;;;;;;;;;;14.00;1.00;;;;;;5051234;28;19912;-77
2024/03/13 13:38:36;;;;;;;;;;;14.00;1.00;;;;;;5052655;28;20032;-77
2024/03/13 13:41:03;;;;;;;;;;;14.00;1.00;;;;;;5036099;28;19921;-77
2024/03/13 13:43:32;;;;;;;;;;;14.10;1.00;;;;;;5055079;28;19909;-76
2024/03/13 13:46:06;;;;;;;;;;;14.10;1.00;;;;;;5055057;28;19913;-76
2024/03/13 13:48:32;;;;;;;;;;;14.10;1.00;;;;;;5033624;28;19975;-76
2024/03/13 13:51:01;;;;;;;;;;;14.30;1.00;;;;;;5034970;28;19913;-77
2024/03/13 13:53:32;;;;;;;;;;;14.30;1.00;;;;;;5043549;28;20383;-77
2024/03/13 13:56:13;;;;;;;;;;;14.20;1.00;;;;;;5037453;28;19909;-76
2024/03/13 13:58:39;;;;;;;;;;;14.20;1.00;;;;;;5054443;28;20314;-76
2024/03/13 14:01:05;;;;;;;;;;;14.30;1.00;;;;;;5036587;28;19916;-77
2024/03/13 14:03:30;;;;;;;;;;;14.50;1.00;;;;;;5055141;28;19963;-78
2024/03/13 14:05:56;;;;;;;;;;;14.80;1.00;;;;;;5055306;28;19975;-78
2024/03/13 14:08:43;;;;;;;;;;;15.00;1.00;;;;;;5054420;28;19931;-78
2024/03/13 14:11:14;;;;;;;;;;;15.30;1.00;;;;;;5047521;28;20004;-78
2024/03/13 14:13:42;;;;;;;;;;;15.40;1.00;;;;;;5041386;28;19967;-79
2024/03/13 14:16:20;;;;;;;;;;;15.40;1.00;;;;;;5054441;28;19913;-78
2024/03/13 14:18:56;;;;;;;;;;;15.60;1.00;;;;;;5033536;28;19920;-78
2024/03/13 14:21:31;;;;;;;;;;;15.40;1.00;;;;;;5050011;28;19999;-78
2024/03/13 14:24:03;;;;;;;;;;;15.70;1.00;;;;;;5040696;28;20437;-78
2024/03/13 14:26:31;;;;;;;;;;;16.00;1.00;;;;;;5047477;28;19916;-78
2024/03/13 14:29:13;;;;;;;;;;;16.30;1.00;;;;;;5040822;28;19908;-78
2024/03/13 14:31:49;;;;;;;;;;;16.60;1.00;;;;;;5054006;28;19913;-78
2024/03/13 14:34:15;;;;;;;;;;;16.70;1.00;;;;;;5062760;28;19909;-76
2024/03/13 14:36:40;;;;;;;;;;;16.60;1.00;;;;;;5050881;28;19931;-77
2024/03/13 14:39:13;;;;;;;;;;;16.60;1.00;;;;;;5053732;28;19909;-76
2024/03/13 14:41:44;;;;;;;;;;;16.40;1.00;;;;;;5036101;28;19916;-77
2024/03/13 14:44:13;;;;;;;;;;;16.30;1.00;;;;;;5052640;28;19913;-77
2024/03/13 14:46:43;;;;;;;;;;;16.30;1.00;;;;;;5053723;28;19912;-85
2024/03/13 14:49:31;;;;;;;;;;;16.30;1.00;;;;;;5036708;28;19920;-77
2024/03/13 14:52:08;;;;;;;;;;;16.20;1.00;;;;;;5042709;28;19915;-77
2024/03/13 14:54:43;;;;;;;;;;;15.90;1.00;;;;;;5033966;28;19967;-77
2024/03/13 14:57:32;;;;;;;;;;;15.90;1.00;;;;;;5033365;28;19909;-78
2024/03/13 15:00:31;;;;;;;;;;;15.60;1.00;;;;;;5034157;28;19961;-77
2024/03/13 15:03:13;;;;;;;;;;;15.60;1.00;;;;;;5052862;28;20003;-77
2024/03/13 15:05:43;;;;;;;;;;;15.70;1.00;;;;;;5036341;28;19920;-77
2024/03/13 15:08:25;;;;;;;;;;;15.70;1.00;;;;;;5047217;28;19909;-77
2024/03/13 15:11:08;;;;;;;;;;;15.70;1.00;;;;;;5053637;28;19913;-77
2024/03/13 15:13:34;;;;;;;;;;;15.70;1.00;;;;;;5046993;28;20261;-77
2024/03/13 15:16:01;;;;;;;;;;;15.60;1.00;;;;;;5036983;28;19913;-77
2024/03/13 15:18:32;;;;;;;;;;;15.40;1.00;;;;;;5047214;28;19916;-77
2024/03/13 15:21:07;;;;;;;;;;;15.40;1.00;;;;;;5055503;28;19913;-78
2024/03/13 15:24:01;;;;;;;;;;;15.40;1.00;;;;;;5057525;28;19913;-78
2024/03/13 15:26:32;;;;;;;;;;;15.50;1.00;;;;;;5053899;28;19959;-77
2024/03/13 15:29:01;;;;;;;;;;;15.60;1.00;;;;;;5054554;28;19912;-82
2024/03/13 15:31:31;;;;;;;;;;;15.60;1.00;;;;;;5055063;28;20008;-77
2024/03/13 15:34:01;;;;;;;;;;;15.50;1.00;;;;;;5055033;28;19909;-77
2024/03/13 15:36:27;;;;;;;;;;;15.30;1.00;;;;;;5054894;28;19917;-75
2024/03/13 15:38:52;;;;;;;;;;;15.30;1.00;;;;;;5057342;28;19920;-75
2024/03/13 15:41:18;;;;;;;;;;;15.30;1.00;;;;;;5057395;28;19920;-76
2024/03/13 15:43:44;;;;;;;;;;;15.30;1.00;;;;;;5039142;28;20339;-76
2024/03/13 15:46:25;;;;;;;;;;;15.30;1.00;;;;;;5041792;28;19913;-76
2024/03/13 15:48:51;;;;;;;;;;;15.20;1.00;;;;;;5037150;28;19917;-75
2024/03/13 15:51:16;;;;;;;;;;;15.10;1.00;;;;;;5056435;28;19935;-76
2024/03/13 15:54:13;;;;;;;;;;;14.80;1.00;;;;;;5053553;28;19909;-76
2024/03/13 15:56:55;;;;;;;;;;;14.50;1.00;;;;;;5039110;28;19913;-76
2024/03/13 15:59:21;;;;;;;;;;;14.40;1.00;;;;;;5040173;28;19959;-76
2024/03/13 16:01:46;;;;;;;;;;;14.20;1.00;;;;;;5038998;28;19912;-76
2024/03/13 16:04:13;;;;;;;;;;;14.20;1.00;;;;;;5055070;28;19989;-75
2024/03/13 16:07:07;;;;;;;;;;;14.10;1.00;;;;;;5055844;28;19920;-76
2024/03/13 16:09:37;;;;;;;;;;;14.00;1.00;;;;;;5057061;28;19913;-75